createdAt,value
2019-05-18T00:01:30.960Z,20.23
2019-05-18T00:04:00.252Z,20.43
2019-05-18T00:06:29.554Z,21.00
2019-05-18T00:08:58.820Z,21.83
2019-05-18T00:11:28.212Z,20.27
2019-05-18T00:13:57.427Z,20.70
2019-05-18T00:16:26.760Z,21.87
2019-05-18T00:18:56.125Z,20.93
2019-05-18T00:21:25.403Z,19.83
2019-05-18T00:23:54.718Z,20.80
2019-05-18T00:26:24.015Z,20.43
2019-05-18T00:28:53.462Z,21.80
2019-05-18T00:31:22.794Z,21.53
2019-05-18T00:33:52.208Z,22.40
2019-05-18T00:36:21.485Z,20.80
2019-05-18T00:38:50.782Z,21.83
2019-05-18T00:41:20.134Z,20.43
2019-05-18T00:43:49.482Z,21.07
2019-05-18T00:46:18.778Z,21.40
2019-05-18T00:48:48.022Z,21.90
2019-05-18T00:51:17.394Z,21.43
2019-05-18T00:53:46.652Z,21.03
2019-05-18T00:56:15.887Z,20.80
2019-05-18T00:58:45.093Z,22.50
2019-05-18T01:01:14.422Z,21.80
2019-05-18T01:03:43.691Z,21.93
2019-05-18T01:06:12.969Z,21.40
2019-05-18T01:08:42.231Z,22.90
2019-05-18T01:11:11.505Z,23.53
2019-05-18T01:13:40.764Z,24.03
2019-05-18T01:16:10.167Z,21.67
2019-05-18T01:18:39.473Z,21.70
2019-05-18T01:21:08.762Z,21.90
2019-05-18T01:23:37.979Z,21.40
2019-05-18T01:26:07.240Z,21.60
2019-05-18T01:28:36.516Z,21.60
2019-05-18T01:31:05.919Z,21.30
2019-05-18T01:33:44.137Z,21.80
2019-05-18T01:36:13.417Z,21.87
2019-05-18T01:38:42.665Z,21.67
2019-05-18T01:41:11.965Z,23.00
2019-05-18T01:43:41.287Z,22.50
2019-05-18T01:46:10.583Z,21.60
2019-05-18T01:48:39.786Z,21.57
2019-05-18T01:51:09.115Z,21.10
2019-05-18T01:53:38.401Z,22.70
2019-05-18T01:56:07.645Z,22.03
2019-05-18T01:58:36.882Z,23.33
2019-05-18T02:01:06.294Z,22.03
2019-05-18T02:03:35.598Z,22.43
2019-05-18T02:06:04.998Z,20.83
2019-05-18T02:08:34.280Z,21.73
2019-05-18T02:11:03.555Z,22.37
2019-05-18T02:13:32.786Z,22.00
2019-05-18T02:16:01.988Z,21.57
2019-05-18T02:18:31.166Z,21.40
2019-05-18T02:21:00.399Z,22.30
2019-05-18T02:23:29.576Z,21.97
2019-05-18T02:25:58.862Z,20.57
2019-05-18T02:28:28.158Z,22.17
2019-05-18T02:30:57.441Z,20.77
2019-05-18T02:33:26.720Z,21.10
2019-05-18T02:36:15.086Z,21.13
2019-05-18T02:38:44.350Z,22.00
2019-05-18T02:41:13.640Z,21.97
2019-05-18T02:43:42.887Z,21.63
2019-05-18T02:46:12.094Z,21.87
2019-05-18T02:48:49.740Z,21.70
2019-05-18T02:51:12.319Z,22.00
2019-05-18T02:53:41.634Z,19.37
2019-05-18T02:56:10.921Z,20.23
2019-05-18T02:58:52.444Z,19.43
2019-05-18T03:01:21.784Z,20.87
2019-05-18T03:03:51.049Z,20.73
2019-05-18T03:06:20.373Z,20.90
2019-05-18T03:08:49.685Z,21.53
2019-05-18T03:11:18.876Z,19.33
2019-05-18T03:13:48.115Z,22.10
2019-05-18T03:16:17.368Z,21.73
2019-05-18T03:18:46.550Z,20.97
2019-05-18T03:21:15.834Z,22.47
2019-05-18T03:23:45.036Z,21.27
2019-05-18T03:26:14.335Z,22.50
2019-05-18T03:28:43.626Z,22.37
2019-05-18T03:31:12.848Z,22.67
2019-05-18T03:33:42.127Z,22.07
2019-05-18T03:36:11.487Z,22.47
2019-05-18T03:38:40.749Z,23.40
2019-05-18T03:41:10.007Z,22.37
2019-05-18T03:43:39.308Z,25.67
2019-05-18T03:46:08.593Z,24.70
2019-05-18T03:48:56.982Z,25.83
2019-05-18T03:51:26.249Z,25.93
2019-05-18T03:53:55.500Z,29.80
2019-05-18T03:56:24.794Z,27.43
2019-05-18T03:58:54.138Z,30.53
2019-05-18T04:01:23.430Z,30.13
2019-05-18T04:03:52.864Z,29.90
2019-05-18T04:06:22.130Z,29.03
2019-05-18T04:08:51.533Z,26.70
2019-05-18T04:11:20.915Z,26.00
2019-05-18T04:13:50.191Z,24.57
2019-05-18T04:16:19.853Z,23.70
2019-05-18T04:18:49.221Z,24.60
2019-05-18T04:21:18.590Z,22.57
2019-05-18T04:23:47.881Z,23.07
2019-05-18T04:26:17.374Z,23.43
2019-05-18T04:28:46.644Z,22.03
2019-05-18T04:31:16.045Z,21.90
2019-05-18T04:33:45.368Z,21.80
2019-05-18T04:36:14.708Z,21.83
2019-05-18T04:38:43.984Z,25.30
2019-05-18T04:41:13.353Z,23.47
2019-05-18T04:43:42.560Z,22.27
2019-05-18T04:46:11.952Z,22.40
2019-05-18T04:48:41.288Z,21.57
2019-05-18T04:51:10.588Z,21.07
2019-05-18T04:53:39.888Z,20.53
2019-05-18T04:56:09.194Z,19.80
2019-05-18T04:58:38.607Z,18.57
2019-05-18T05:01:07.857Z,20.63
2019-05-18T05:03:37.207Z,20.17
2019-05-18T05:06:06.490Z,20.03
2019-05-18T05:08:35.908Z,20.60
2019-05-18T05:11:05.170Z,20.23
2019-05-18T05:13:34.377Z,21.33
2019-05-18T05:16:22.729Z,20.00
2019-05-18T05:18:52.004Z,20.73
2019-05-18T05:21:21.291Z,18.87
2019-05-18T05:23:50.513Z,18.67
2019-05-18T05:26:19.700Z,20.03
2019-05-18T05:28:48.967Z,18.90
2019-05-18T05:31:18.301Z,18.43
2019-05-18T05:33:47.683Z,17.67
2019-05-18T05:36:17.368Z,19.87
2019-05-18T05:38:46.625Z,19.40
2019-05-18T05:41:16.848Z,19.20
2019-05-18T05:43:46.335Z,19.47
2019-05-18T05:46:15.637Z,18.20
2019-05-18T05:48:44.918Z,18.27
2019-05-18T05:51:14.215Z,18.90
2019-05-18T05:53:43.432Z,19.30
2019-05-18T05:56:12.730Z,18.97
2019-05-18T05:58:41.915Z,19.07
2019-05-18T06:01:11.324Z,19.63
2019-05-18T06:03:40.713Z,17.70
2019-05-18T06:06:09.931Z,18.63
2019-05-18T06:08:39.317Z,16.13
2019-05-18T06:11:08.589Z,15.40
2019-05-18T06:13:38.054Z,13.90
2019-05-18T06:16:07.274Z,15.47
2019-05-18T06:18:36.552Z,13.33
2019-05-18T06:21:05.844Z,13.90
2019-05-18T06:23:35.084Z,15.43
2019-05-18T06:26:04.285Z,14.27
2019-05-18T06:28:33.552Z,14.80
2019-05-18T06:31:02.855Z,16.00
2019-05-18T06:33:32.123Z,14.80
2019-05-18T06:36:01.369Z,14.07
2019-05-18T06:38:30.676Z,14.73
2019-05-18T06:40:59.930Z,14.83
2019-05-18T06:43:29.201Z,15.00
2019-05-18T06:45:58.511Z,14.10
2019-05-18T06:48:27.727Z,14.23
2019-05-18T06:51:06.923Z,14.97
2019-05-18T06:53:28.040Z,14.87
2019-05-18T06:55:57.691Z,15.10
2019-05-18T06:58:27.871Z,14.43
2019-05-18T07:00:57.145Z,13.67
2019-05-18T07:03:26.499Z,12.90
2019-05-18T07:05:55.841Z,13.73
2019-05-18T07:08:25.161Z,14.37
2019-05-18T07:10:54.410Z,14.40
2019-05-18T07:13:23.889Z,13.73
2019-05-18T07:15:53.413Z,15.33
2019-05-18T07:18:23.007Z,14.57
2019-05-18T07:20:52.592Z,15.00
2019-05-18T07:23:21.919Z,14.23
2019-05-18T07:25:51.163Z,15.33
2019-05-18T07:28:20.497Z,16.27
2019-05-18T07:30:49.871Z,15.37
2019-05-18T07:33:19.327Z,15.77
2019-05-18T07:35:48.661Z,14.93
2019-05-18T07:38:18.108Z,15.60
2019-05-18T07:40:47.380Z,14.23
2019-05-18T07:43:16.709Z,13.57
2019-05-18T07:45:45.953Z,13.83
2019-05-18T07:48:15.336Z,14.00
2019-05-18T07:50:44.865Z,14.43
2019-05-18T07:53:14.445Z,14.20
2019-05-18T07:55:43.731Z,14.10
2019-05-18T07:58:16.466Z,14.00
2019-05-18T08:00:45.882Z,12.77
2019-05-18T08:03:15.290Z,15.27
2019-05-18T08:05:44.616Z,14.07
2019-05-18T08:08:13.989Z,14.83
2019-05-18T08:10:43.875Z,14.33
2019-05-18T08:13:13.463Z,13.80
2019-05-18T08:15:42.771Z,14.63
2019-05-18T08:18:12.141Z,14.17
2019-05-18T08:20:41.672Z,14.70
2019-05-18T08:23:10.935Z,14.27
2019-05-18T08:25:40.324Z,14.33
2019-05-18T08:28:09.622Z,14.30
2019-05-18T08:30:39.036Z,14.00
2019-05-18T08:33:08.372Z,14.73
2019-05-18T08:35:37.804Z,15.20
2019-05-18T08:38:07.205Z,15.57
2019-05-18T08:40:36.582Z,15.10
2019-05-18T08:43:05.994Z,16.10
2019-05-18T08:45:35.420Z,15.13
2019-05-18T08:48:04.798Z,14.90
2019-05-18T08:50:34.200Z,14.87
2019-05-18T08:53:03.588Z,14.27
2019-05-18T08:55:32.914Z,15.45
2019-05-18T08:58:02.234Z,16.00
2019-05-18T09:00:31.524Z,15.20
2019-05-18T09:03:00.860Z,15.47
2019-05-18T09:05:30.190Z,15.85
2019-05-18T09:07:59.543Z,16.57
2019-05-18T09:10:28.941Z,16.73
2019-05-18T09:12:58.152Z,15.40
2019-05-18T09:15:27.459Z,16.03
2019-05-18T09:17:56.840Z,12.63
2019-05-18T09:20:26.159Z,11.50
2019-05-18T09:22:55.479Z,11.40
2019-05-18T09:25:24.882Z,11.80
2019-05-18T09:27:54.113Z,12.47
2019-05-18T09:30:23.567Z,12.13
2019-05-18T09:32:52.913Z,12.55
2019-05-18T09:35:22.363Z,12.68
2019-05-18T09:37:51.610Z,12.43
2019-05-18T09:40:21.133Z,12.63
2019-05-18T09:43:02.408Z,15.67
2019-05-18T09:45:31.849Z,14.98
2019-05-18T09:48:01.272Z,16.02
2019-05-18T09:50:30.767Z,15.43
2019-05-18T09:53:00.287Z,16.55
2019-05-18T09:55:29.517Z,16.25
2019-05-18T09:57:58.816Z,16.45
2019-05-18T10:00:28.349Z,16.45
2019-05-18T10:02:57.631Z,16.37
2019-05-18T10:05:46.067Z,16.15
2019-05-18T10:08:15.391Z,16.40
2019-05-18T10:10:44.702Z,16.52
2019-05-18T10:13:14.035Z,15.23
2019-05-18T10:15:43.398Z,15.78
2019-05-18T10:18:12.806Z,16.17
2019-05-18T10:20:42.212Z,16.30
2019-05-18T10:23:13.701Z,16.05
2019-05-18T10:25:42.817Z,16.70
2019-05-18T10:28:12.146Z,17.00
2019-05-18T10:30:41.690Z,15.38
2019-05-18T10:33:10.980Z,17.27
2019-05-18T10:35:40.377Z,16.57
2019-05-18T10:38:09.677Z,15.45
2019-05-18T10:40:39.050Z,15.35
2019-05-18T10:43:08.365Z,15.88
2019-05-18T10:45:37.713Z,15.05
2019-05-18T10:48:07.513Z,14.95
2019-05-18T10:50:36.955Z,13.27
2019-05-18T10:53:08.139Z,9.87
2019-05-18T10:55:37.441Z,9.80
2019-05-18T10:58:06.789Z,10.13
2019-05-18T11:00:36.278Z,10.87
2019-05-18T11:03:05.539Z,10.77
2019-05-18T11:05:34.910Z,10.07
2019-05-18T11:08:04.279Z,11.10
2019-05-18T11:10:33.699Z,10.50
2019-05-18T11:13:02.953Z,10.60
2019-05-18T11:15:32.272Z,10.83
2019-05-18T11:18:01.631Z,11.00
2019-05-18T11:20:31.029Z,12.03
2019-05-18T11:23:00.267Z,13.90
2019-05-18T11:25:29.516Z,13.37
2019-05-18T11:27:58.806Z,14.30
2019-05-18T11:30:28.487Z,14.00
2019-05-18T11:32:57.779Z,14.37
2019-05-18T11:35:27.085Z,15.03
2019-05-18T11:37:56.384Z,15.23
2019-05-18T11:40:25.839Z,14.37
2019-05-18T11:42:55.130Z,15.07
2019-05-18T11:45:24.938Z,14.10
2019-05-18T11:47:54.139Z,14.77
2019-05-18T11:50:23.865Z,13.53
2019-05-18T11:52:53.109Z,15.13
2019-05-18T11:55:22.568Z,14.40
2019-05-18T11:57:52.351Z,13.43
2019-05-18T12:00:22.160Z,14.53
2019-05-18T12:02:51.453Z,12.73
2019-05-18T12:05:20.887Z,12.60
2019-05-18T12:07:50.271Z,11.13
2019-05-18T12:10:21.332Z,11.90
2019-05-18T12:12:51.027Z,12.93
2019-05-18T12:15:20.894Z,12.87
2019-05-18T12:17:50.272Z,9.13
2019-05-18T12:20:21.506Z,10.33
2019-05-18T12:22:51.013Z,9.17
2019-05-18T12:25:20.637Z,9.60
2019-05-18T12:27:50.295Z,8.97
2019-05-18T12:30:19.978Z,9.03
2019-05-18T12:32:49.867Z,9.50
2019-05-18T12:35:19.340Z,9.27
2019-05-18T12:37:49.315Z,10.30
2019-05-18T12:40:20.280Z,9.67
2019-05-18T12:42:49.823Z,11.27
2019-05-18T12:45:19.637Z,10.07
2019-05-18T12:47:49.232Z,13.90
2019-05-18T12:50:19.602Z,15.80
2019-05-18T12:52:49.008Z,11.73
2019-05-18T12:55:18.596Z,14.93
2019-05-18T12:57:47.930Z,15.90
2019-05-18T13:00:17.826Z,15.13
2019-05-18T13:02:47.203Z,13.87
2019-05-18T13:05:16.969Z,12.07
2019-05-18T13:07:46.232Z,9.47
2019-05-18T13:10:15.937Z,12.17
2019-05-18T13:12:45.532Z,11.17
2019-05-18T13:15:15.383Z,10.63
2019-05-18T13:17:44.878Z,13.13
2019-05-18T13:20:17.366Z,12.70
2019-05-18T13:22:46.634Z,12.33
2019-05-18T13:25:16.672Z,12.03
2019-05-18T13:27:46.211Z,11.90
2019-05-18T13:30:19.813Z,12.33
2019-05-18T13:32:48.473Z,13.73
2019-05-18T13:35:18.430Z,14.43
2019-05-18T13:37:47.886Z,14.97
2019-05-18T13:40:18.969Z,14.87
2019-05-18T13:42:48.475Z,13.27
2019-05-18T13:45:19.077Z,14.07
2019-05-18T13:47:48.629Z,14.10
2019-05-18T13:50:18.312Z,13.90
2019-05-18T13:52:47.581Z,14.80
2019-05-18T13:55:17.275Z,14.10
2019-05-18T13:57:46.591Z,15.00
2019-05-18T14:00:17.433Z,13.80
2019-05-18T14:02:46.667Z,13.50
2019-05-18T14:05:17.487Z,14.10
2019-05-18T14:07:46.801Z,16.40
2019-05-18T14:10:17.740Z,15.73
2019-05-18T14:12:47.156Z,14.87
2019-05-18T14:15:16.601Z,14.57
2019-05-18T14:17:46.084Z,14.43
2019-05-18T14:20:15.491Z,14.50
2019-05-18T14:22:44.834Z,15.13
2019-05-18T14:25:19.243Z,14.07
2019-05-18T14:27:45.342Z,14.63
2019-05-18T14:30:15.144Z,15.43
2019-05-18T14:32:44.512Z,13.53
2019-05-18T14:35:13.886Z,13.97
2019-05-18T14:37:43.178Z,14.17
2019-05-18T14:40:13.936Z,13.93
2019-05-18T14:42:43.246Z,14.40
2019-05-18T14:45:12.610Z,14.27
2019-05-18T14:47:42.020Z,15.67
2019-05-18T14:50:12.072Z,14.40
2019-05-18T14:52:41.302Z,14.70
2019-05-18T14:55:10.697Z,13.53
2019-05-18T14:57:40.431Z,13.80
2019-05-18T15:00:10.582Z,13.93
2019-05-18T15:02:40.039Z,14.67
2019-05-18T15:05:09.967Z,15.07
2019-05-18T15:07:39.327Z,13.90
2019-05-18T15:10:09.365Z,13.80
2019-05-18T15:12:38.672Z,12.87
2019-05-18T15:15:08.624Z,13.43
2019-05-18T15:17:37.991Z,13.43
2019-05-18T15:20:07.723Z,13.07
2019-05-18T15:22:37.011Z,13.90
2019-05-18T15:25:07.310Z,17.53
2019-05-18T15:27:36.516Z,12.23
2019-05-18T15:30:06.315Z,13.90
2019-05-18T15:32:35.657Z,17.73
2019-05-18T15:35:05.230Z,13.20
2019-05-18T15:37:34.608Z,13.80
2019-05-18T15:40:03.945Z,15.87
2019-05-18T15:42:33.222Z,15.73
2019-05-18T15:45:02.710Z,13.67
2019-05-18T15:47:32.007Z,13.23
2019-05-18T15:50:01.308Z,14.30
2019-05-18T15:52:30.994Z,13.80
2019-05-18T15:55:00.304Z,14.07
2019-05-18T15:57:29.759Z,13.93
2019-05-18T15:59:59.069Z,12.37
2019-05-18T16:02:28.478Z,12.37
2019-05-18T16:04:57.777Z,12.40
2019-05-18T16:07:27.144Z,11.63
2019-05-18T16:09:56.434Z,12.63
2019-05-18T16:12:25.779Z,13.80
2019-05-18T16:14:55.000Z,13.53
2019-05-18T16:17:38.335Z,13.63
2019-05-18T16:19:55.330Z,13.70
2019-05-18T16:22:24.739Z,12.43
2019-05-18T16:24:54.437Z,11.60
2019-05-18T16:27:23.842Z,12.73
2019-05-18T16:29:53.178Z,12.10
2019-05-18T16:32:22.481Z,11.63
2019-05-18T16:34:51.849Z,13.33
2019-05-18T16:37:21.074Z,13.00
2019-05-18T16:39:50.470Z,12.63
2019-05-18T16:42:19.810Z,12.20
2019-05-18T16:44:49.176Z,12.47
2019-05-18T16:47:18.464Z,11.73
2019-05-18T16:49:49.976Z,13.57
2019-05-18T16:52:19.358Z,12.03
2019-05-18T16:54:48.697Z,13.30
2019-05-18T16:57:18.114Z,14.43
2019-05-18T16:59:47.566Z,12.37
2019-05-18T17:02:30.801Z,13.33
2019-05-18T17:04:47.909Z,13.40
2019-05-18T17:07:17.122Z,11.77
2019-05-18T17:09:46.542Z,12.20
2019-05-18T17:12:15.897Z,12.13
2019-05-18T17:14:45.286Z,12.90
2019-05-18T17:17:14.654Z,12.70
2019-05-18T17:19:43.890Z,12.13
2019-05-18T17:22:13.117Z,12.13
2019-05-18T17:24:42.322Z,11.97
2019-05-18T17:27:11.713Z,12.27
2019-05-18T17:29:41.000Z,11.83
2019-05-18T17:32:10.226Z,12.43
2019-05-18T17:34:39.555Z,11.13
2019-05-18T17:37:09.992Z,12.00
2019-05-18T17:39:39.244Z,12.47
2019-05-18T17:42:08.618Z,12.37
2019-05-18T17:44:37.799Z,12.57
2019-05-18T17:47:07.210Z,11.87
2019-05-18T17:49:36.463Z,12.40
2019-05-18T17:52:05.836Z,12.30
2019-05-18T17:54:35.208Z,12.80
2019-05-18T17:57:08.549Z,12.50
2019-05-18T17:59:35.574Z,12.97
2019-05-18T18:02:04.851Z,12.37
2019-05-18T18:04:34.205Z,11.07
2019-05-18T18:07:03.629Z,10.77
2019-05-18T18:09:33.028Z,11.23
2019-05-18T18:12:02.383Z,16.93
2019-05-18T18:14:31.739Z,17.50
2019-05-18T18:17:01.061Z,19.90
2019-05-18T18:19:30.501Z,19.13
2019-05-18T18:21:59.812Z,18.43
2019-05-18T18:24:29.139Z,19.67
2019-05-18T18:26:58.470Z,19.63
2019-05-18T18:29:27.891Z,20.03
2019-05-18T18:31:57.193Z,20.90
2019-05-18T18:34:26.504Z,20.10
2019-05-18T18:36:55.901Z,19.40
2019-05-18T18:39:25.298Z,20.53
2019-05-18T18:41:54.648Z,20.43
2019-05-18T18:44:24.104Z,20.43
2019-05-18T18:46:53.448Z,19.90
2019-05-18T18:49:22.784Z,20.73
2019-05-18T18:51:52.170Z,21.07
2019-05-18T18:54:21.493Z,20.90
2019-05-18T18:56:50.904Z,21.30
2019-05-18T18:59:20.282Z,20.43
2019-05-18T19:01:49.511Z,20.97
2019-05-18T19:04:19.008Z,19.67
2019-05-18T19:06:48.306Z,18.70
2019-05-18T19:09:17.577Z,18.47
2019-05-18T19:11:47.022Z,20.30
2019-05-18T19:14:16.417Z,21.57
2019-05-18T19:16:45.897Z,22.07
2019-05-18T19:19:15.291Z,23.13
2019-05-18T19:21:44.868Z,23.90
2019-05-18T19:24:14.265Z,22.43
2019-05-18T19:26:43.676Z,22.80
2019-05-18T19:29:13.246Z,23.70
2019-05-18T19:31:42.643Z,22.87
2019-05-18T19:34:12.000Z,23.83
2019-05-18T19:36:41.423Z,24.97
2019-05-18T19:39:10.870Z,23.50
2019-05-18T19:41:40.287Z,25.30
2019-05-18T19:44:09.682Z,24.90
2019-05-18T19:46:39.083Z,24.67
2019-05-18T19:49:09.615Z,23.00
2019-05-18T19:51:38.983Z,22.67
2019-05-18T19:54:08.338Z,23.37
2019-05-18T19:56:41.408Z,22.30
2019-05-18T19:59:08.781Z,21.17
2019-05-18T20:01:38.166Z,20.13
2019-05-18T20:04:07.580Z,21.00
2019-05-18T20:06:36.995Z,19.23
2019-05-18T20:09:07.078Z,20.47
2019-05-18T20:11:36.577Z,20.47
2019-05-18T20:14:05.989Z,19.40
2019-05-18T20:16:35.604Z,19.87
2019-05-18T20:19:05.039Z,19.67
2019-05-18T20:21:34.424Z,21.17
2019-05-18T20:24:03.712Z,20.77
2019-05-18T20:26:33.057Z,22.10
2019-05-18T20:29:02.581Z,22.23
2019-05-18T20:31:31.996Z,21.70
2019-05-18T20:34:01.849Z,22.43
2019-05-18T20:36:31.278Z,23.67
2019-05-18T20:39:02.208Z,21.73
2019-05-18T20:41:31.836Z,23.53
2019-05-18T20:44:01.136Z,24.20
2019-05-18T20:46:30.656Z,24.33
2019-05-18T20:49:01.568Z,26.07
2019-05-18T20:51:30.942Z,26.23
2019-05-18T20:54:00.299Z,25.80
2019-05-18T20:56:29.668Z,26.50
2019-05-18T20:58:58.937Z,28.60
2019-05-18T21:01:28.363Z,28.47
2019-05-18T21:03:57.652Z,27.77
2019-05-18T21:06:26.972Z,28.27
2019-05-18T21:08:56.332Z,29.03
2019-05-18T21:11:25.656Z,31.20
2019-05-18T21:13:57.670Z,29.97
2019-05-18T21:16:26.093Z,29.20
2019-05-18T21:18:55.413Z,32.03
2019-05-18T21:21:26.331Z,33.27
2019-05-18T21:23:55.814Z,33.17
2019-05-18T21:26:25.028Z,32.17
2019-05-18T21:28:59.311Z,32.27
2019-05-18T21:31:25.587Z,33.30
2019-05-18T21:33:54.909Z,32.63
2019-05-18T21:36:24.702Z,32.97
2019-05-18T21:38:54.118Z,35.03
2019-05-18T21:41:23.386Z,35.50
2019-05-18T21:43:52.812Z,36.90
2019-05-18T21:46:22.133Z,34.67
2019-05-18T21:48:51.431Z,33.37
2019-05-18T21:51:20.904Z,32.87
2019-05-18T21:53:50.300Z,32.57
2019-05-18T21:56:19.555Z,34.33
2019-05-18T21:58:48.949Z,35.70
2019-05-18T22:01:18.409Z,35.73
2019-05-18T22:03:48.348Z,33.23
2019-05-18T22:06:21.114Z,33.00
2019-05-18T22:08:50.423Z,34.80
2019-05-18T22:11:19.742Z,33.23
2019-05-18T22:13:49.037Z,35.13
2019-05-18T22:16:18.290Z,36.80
2019-05-18T22:18:47.638Z,33.97
2019-05-18T22:21:17.097Z,35.80
2019-05-18T22:23:46.385Z,34.93
2019-05-18T22:26:15.672Z,35.77
2019-05-18T22:28:44.980Z,35.77
2019-05-18T22:31:14.179Z,35.50
2019-05-18T22:33:43.526Z,34.50
2019-05-18T22:36:12.842Z,35.47
2019-05-18T22:38:50.144Z,36.10
2019-05-18T22:41:19.493Z,36.67
2019-05-18T22:43:48.716Z,37.60
2019-05-18T22:46:18.018Z,36.50
2019-05-18T22:48:47.318Z,37.20
2019-05-18T22:51:16.579Z,36.83
2019-05-18T22:54:04.977Z,36.53
2019-05-18T22:56:34.302Z,37.00
2019-05-18T22:59:03.638Z,36.57
2019-05-18T23:01:32.960Z,36.83
2019-05-18T23:04:02.234Z,37.30
2019-05-18T23:06:31.579Z,39.33
2019-05-18T23:09:00.854Z,37.67
2019-05-18T23:11:30.158Z,39.23
2019-05-18T23:13:59.493Z,39.97
2019-05-18T23:16:28.840Z,42.03
2019-05-18T23:18:58.091Z,39.80
2019-05-18T23:21:27.309Z,39.10
2019-05-18T23:23:56.600Z,41.57
2019-05-18T23:26:25.792Z,39.67
2019-05-18T23:28:55.098Z,44.30
2019-05-18T23:31:24.478Z,44.00
2019-05-18T23:33:53.777Z,43.93
2019-05-18T23:36:23.044Z,42.80
2019-05-18T23:38:52.403Z,44.03
2019-05-18T23:41:21.734Z,43.53
2019-05-18T23:43:51.078Z,44.17
2019-05-18T23:46:20.561Z,44.13
2019-05-18T23:48:49.731Z,44.87
2019-05-18T23:51:18.959Z,44.03
2019-05-18T23:53:48.261Z,42.57
2019-05-18T23:56:17.565Z,42.83
2019-05-18T23:58:46.791Z,44.20
